createdAt,value
2022-10-20T00:02:23.419Z,60.64
2022-10-20T00:04:50.977Z,60.78
2022-10-20T00:07:18.507Z,60.78
2022-10-20T00:09:46.046Z,60.67
2022-10-20T00:12:13.564Z,60.71
2022-10-20T00:14:41.109Z,60.62
2022-10-20T00:17:08.685Z,60.79
2022-10-20T00:19:37.574Z,60.68
2022-10-20T00:22:05.108Z,60.62
2022-10-20T00:24:32.721Z,60.70
2022-10-20T00:27:00.257Z,60.60
2022-10-20T00:29:27.821Z,60.71
2022-10-20T00:31:55.381Z,60.54
2022-10-20T00:34:22.906Z,60.58
2022-10-20T00:36:51.885Z,60.64
2022-10-20T00:39:19.426Z,60.67
2022-10-20T00:41:46.947Z,60.62
2022-10-20T00:44:52.940Z,60.53
2022-10-20T00:47:22.925Z,60.77
2022-10-20T00:49:50.544Z,60.69
2022-10-20T00:52:19.916Z,60.60
2022-10-20T00:54:47.510Z,60.61
2022-10-20T00:57:15.117Z,60.67
2022-10-20T00:59:42.630Z,60.59
2022-10-20T01:02:10.145Z,60.73
2022-10-20T01:04:37.784Z,60.59
2022-10-20T01:07:05.368Z,60.71
2022-10-20T01:09:34.342Z,60.71
2022-10-20T01:12:06.520Z,60.73
2022-10-20T01:14:38.212Z,60.88
2022-10-20T01:17:09.724Z,60.52
2022-10-20T01:20:09.613Z,60.64
2022-10-20T01:22:43.785Z,60.59
2022-10-20T01:25:19.424Z,60.67
2022-10-20T01:27:49.030Z,60.63
2022-10-20T01:30:17.755Z,60.46
2022-10-20T01:32:52.224Z,60.64
2022-10-20T01:35:23.548Z,60.59
2022-10-20T01:37:52.895Z,60.58
2022-10-20T01:40:25.389Z,60.64
2022-10-20T01:42:54.571Z,60.67
2022-10-20T01:45:22.337Z,60.61
2022-10-20T01:47:49.921Z,60.68
2022-10-20T01:50:17.501Z,60.73
2022-10-20T01:52:45.054Z,60.68
2022-10-20T01:55:14.333Z,60.68
2022-10-20T01:57:47.253Z,60.68
2022-10-20T02:00:16.418Z,60.69
2022-10-20T02:02:52.259Z,60.71
2022-10-20T02:05:25.865Z,60.50
2022-10-20T02:07:58.129Z,60.69
2022-10-20T02:10:28.600Z,60.76
2022-10-20T02:12:59.141Z,60.64
2022-10-20T02:15:28.869Z,60.62
2022-10-20T02:17:58.584Z,60.60
2022-10-20T02:20:26.141Z,60.55
2022-10-20T02:22:53.809Z,60.52
2022-10-20T02:25:21.349Z,60.35
2022-10-20T02:27:48.991Z,60.64
2022-10-20T02:30:17.589Z,60.71
2022-10-20T02:32:49.302Z,60.64
2022-10-20T02:35:19.638Z,60.58
2022-10-20T02:37:47.217Z,60.53
2022-10-20T02:40:15.124Z,60.61
2022-10-20T02:42:43.605Z,60.58
2022-10-20T02:45:11.432Z,60.64
2022-10-20T02:47:39.270Z,60.65
2022-10-20T02:50:09.333Z,60.66
2022-10-20T02:52:37.917Z,60.54
2022-10-20T02:55:06.155Z,60.80
2022-10-20T02:57:33.955Z,60.57
2022-10-20T03:00:01.887Z,60.57
2022-10-20T03:02:29.415Z,60.60
2022-10-20T03:04:56.963Z,60.73
2022-10-20T03:07:25.906Z,60.61
2022-10-20T03:09:53.464Z,60.59
2022-10-20T03:12:21.024Z,60.67
2022-10-20T03:14:48.630Z,60.62
2022-10-20T03:17:16.176Z,60.79
2022-10-20T03:19:43.746Z,60.72
2022-10-20T03:22:11.281Z,60.62
2022-10-20T03:24:40.216Z,60.63
2022-10-20T03:27:07.832Z,60.61
2022-10-20T03:29:35.373Z,60.65
2022-10-20T03:32:02.918Z,60.63
2022-10-20T03:34:30.464Z,60.80
2022-10-20T03:36:58.009Z,60.64
2022-10-20T03:39:25.639Z,60.64
2022-10-20T03:41:55.203Z,60.62
2022-10-20T03:44:22.752Z,60.75
2022-10-20T03:46:50.318Z,60.61
2022-10-20T03:49:17.866Z,60.62
2022-10-20T03:51:45.411Z,60.66
2022-10-20T03:54:12.944Z,60.59
2022-10-20T03:56:40.477Z,60.61
2022-10-20T03:59:10.385Z,60.68
2022-10-20T04:01:38.070Z,60.67
2022-10-20T04:04:05.739Z,60.53
2022-10-20T04:06:33.573Z,60.58
2022-10-20T04:09:01.178Z,60.50
2022-10-20T04:11:28.745Z,60.59
2022-10-20T04:13:56.376Z,60.72
2022-10-20T04:16:25.291Z,61.00
2022-10-20T04:18:52.885Z,60.96
2022-10-20T04:21:20.494Z,61.07
2022-10-20T04:23:48.056Z,61.18
2022-10-20T04:26:16.563Z,60.99
2022-10-20T04:28:44.151Z,61.28
2022-10-20T04:31:11.840Z,61.19
2022-10-20T04:33:40.729Z,60.99
2022-10-20T04:36:09.237Z,61.02
2022-10-20T04:38:36.773Z,61.18
2022-10-20T04:41:05.185Z,61.25
2022-10-20T04:43:33.003Z,61.00
2022-10-20T04:46:03.892Z,60.91
2022-10-20T04:48:34.735Z,60.95
2022-10-20T04:51:04.424Z,61.00
2022-10-20T04:53:32.006Z,60.89
2022-10-20T04:55:59.559Z,60.92
2022-10-20T04:58:27.247Z,60.89
2022-10-20T05:00:54.897Z,60.97
2022-10-20T05:03:22.449Z,60.93
2022-10-20T05:05:50.006Z,60.99
2022-10-20T05:08:18.909Z,61.02
2022-10-20T05:10:46.441Z,61.01
2022-10-20T05:13:14.001Z,61.08
2022-10-20T05:15:41.558Z,61.11
2022-10-20T05:18:09.149Z,61.15
2022-10-20T05:20:45.890Z,61.06
2022-10-20T05:23:26.327Z,61.08
2022-10-20T05:25:53.862Z,61.08
2022-10-20T05:28:21.424Z,61.16
2022-10-20T05:30:48.935Z,61.30
2022-10-20T05:33:16.508Z,61.19
2022-10-20T05:35:44.053Z,61.15
2022-10-20T05:38:11.624Z,61.24
2022-10-20T05:40:40.497Z,61.08
2022-10-20T05:43:08.293Z,61.10
2022-10-20T05:45:35.813Z,61.15
2022-10-20T05:48:03.460Z,61.08
2022-10-20T05:50:30.989Z,61.27
2022-10-20T05:52:58.593Z,61.03
2022-10-20T05:55:26.148Z,61.17
2022-10-20T05:57:55.368Z,61.25
2022-10-20T06:00:30.268Z,61.11
2022-10-20T06:02:58.058Z,61.12
2022-10-20T06:05:25.831Z,61.25
2022-10-20T06:07:54.304Z,61.18
2022-10-20T06:10:21.851Z,61.21
2022-10-20T06:12:49.401Z,61.30
2022-10-20T06:15:18.297Z,61.18
2022-10-20T06:17:47.532Z,61.20
2022-10-20T06:20:15.140Z,61.38
2022-10-20T06:22:42.848Z,61.17
2022-10-20T06:25:10.627Z,60.94
2022-10-20T06:27:38.186Z,60.90
2022-10-20T06:30:06.669Z,60.69
2022-10-20T06:32:35.723Z,60.65
2022-10-20T06:35:03.421Z,60.47
2022-10-20T06:37:30.967Z,60.38
2022-10-20T06:39:58.537Z,60.67
2022-10-20T06:42:26.257Z,60.77
2022-10-20T06:44:55.092Z,60.91
2022-10-20T06:47:22.660Z,60.81
2022-10-20T06:49:51.548Z,60.99
2022-10-20T06:52:19.120Z,61.18
2022-10-20T06:54:46.661Z,61.24
2022-10-20T06:57:14.222Z,61.07
2022-10-20T06:59:41.783Z,61.13
2022-10-20T07:02:10.775Z,61.09
2022-10-20T07:04:38.425Z,61.07
2022-10-20T07:07:07.316Z,61.02
2022-10-20T07:09:34.873Z,61.03
2022-10-20T07:12:02.883Z,61.17
2022-10-20T07:14:32.416Z,61.08
2022-10-20T07:17:00.166Z,61.11
2022-10-20T07:19:27.826Z,60.98
2022-10-20T07:21:55.385Z,61.17
2022-10-20T07:24:24.369Z,61.21
2022-10-20T07:26:51.913Z,61.14
2022-10-20T07:29:19.931Z,61.16
2022-10-20T07:31:48.069Z,61.21
2022-10-20T07:34:25.704Z,61.80
2022-10-20T07:36:54.156Z,61.55
2022-10-20T07:39:21.755Z,61.60
2022-10-20T07:41:50.794Z,61.77
2022-10-20T07:44:18.422Z,61.20
2022-10-20T07:46:46.059Z,61.51
2022-10-20T07:52:01.231Z,61.47
2022-10-20T07:54:28.845Z,61.28
2022-10-20T07:56:57.728Z,61.42
2022-10-20T07:59:25.344Z,61.16
2022-10-20T08:01:56.093Z,61.20
2022-10-20T08:04:26.229Z,61.35
2022-10-20T08:06:53.812Z,61.11
2022-10-20T08:09:21.338Z,61.17
2022-10-20T08:11:52.734Z,61.04
2022-10-20T08:14:26.749Z,60.98
2022-10-20T08:17:02.789Z,61.03
2022-10-20T08:19:36.911Z,60.94
2022-10-20T08:22:04.580Z,60.80
2022-10-20T08:24:32.156Z,60.87
2022-10-20T08:27:00.129Z,60.90
2022-10-20T08:29:29.078Z,60.84
2022-10-20T08:31:56.649Z,60.88
2022-10-20T08:34:24.166Z,60.78
2022-10-20T08:36:51.700Z,60.89
2022-10-20T08:39:19.742Z,60.74
2022-10-20T08:42:06.867Z,60.95
2022-10-20T08:44:36.791Z,60.67
2022-10-20T08:47:05.430Z,60.79
2022-10-20T08:49:33.893Z,60.79
2022-10-20T08:52:01.776Z,60.95
2022-10-20T08:54:29.342Z,60.72
2022-10-20T08:56:56.880Z,60.80
2022-10-20T08:59:27.685Z,60.79
2022-10-20T09:01:56.800Z,60.73
2022-10-20T09:04:25.610Z,60.94
2022-10-20T09:06:56.986Z,60.61
2022-10-20T09:09:24.520Z,60.86
2022-10-20T09:11:52.117Z,60.72
2022-10-20T09:14:20.958Z,60.87
2022-10-20T09:16:59.861Z,60.89
2022-10-20T09:19:29.416Z,60.73
2022-10-20T09:21:58.840Z,61.05
2022-10-20T09:24:29.973Z,61.12
2022-10-20T09:26:59.673Z,61.21
2022-10-20T09:29:35.843Z,61.37
2022-10-20T09:32:27.255Z,61.15
2022-10-20T09:34:52.372Z,61.22
2022-10-20T09:37:19.925Z,61.25
2022-10-20T09:39:55.463Z,61.35
2022-10-20T09:42:24.760Z,61.36
2022-10-20T09:44:54.305Z,61.25
2022-10-20T09:47:22.309Z,61.05
2022-10-20T09:49:59.894Z,61.30
2022-10-20T09:52:31.711Z,61.43
2022-10-20T09:55:01.501Z,61.43
2022-10-20T09:57:29.047Z,61.51
2022-10-20T09:59:58.680Z,61.33
2022-10-20T10:02:32.835Z,61.52
2022-10-20T10:05:21.564Z,61.32
2022-10-20T10:07:59.212Z,61.33
2022-10-20T10:10:28.417Z,61.40
2022-10-20T10:12:57.036Z,61.52
2022-10-20T10:15:27.053Z,61.51
2022-10-20T10:17:54.609Z,57.91
2022-10-20T10:20:30.598Z,57.70
2022-10-20T10:23:23.155Z,58.94
2022-10-20T10:25:50.999Z,59.62
2022-10-20T10:31:10.311Z,59.93
2022-10-20T10:33:37.942Z,60.29
2022-10-20T10:36:07.888Z,60.34
2022-10-20T10:38:35.682Z,60.51
2022-10-20T10:41:06.479Z,60.46
2022-10-20T10:43:35.463Z,60.81
2022-10-20T10:46:05.885Z,60.77
2022-10-20T10:49:00.690Z,61.08
2022-10-20T10:51:35.610Z,61.72
2022-10-20T10:54:12.404Z,62.49
2022-10-20T10:56:43.973Z,62.78
2022-10-20T10:59:12.567Z,63.20
2022-10-20T11:02:06.796Z,63.02
2022-10-20T11:04:48.932Z,62.91
2022-10-20T11:07:23.068Z,62.79
2022-10-20T11:09:57.608Z,62.82
2022-10-20T11:12:40.881Z,62.93
2022-10-20T11:15:24.177Z,62.97
2022-10-20T11:17:55.294Z,62.95
2022-10-20T11:20:26.609Z,63.05
2022-10-20T11:23:12.776Z,63.02
2022-10-20T11:25:42.009Z,63.00
2022-10-20T11:28:19.610Z,63.07
2022-10-20T11:30:47.174Z,62.83
2022-10-20T11:33:15.785Z,62.90
2022-10-20T11:35:44.194Z,62.81
2022-10-20T11:38:19.533Z,62.82
2022-10-20T11:40:50.061Z,62.83
2022-10-20T11:43:18.952Z,62.82
2022-10-20T11:45:50.095Z,63.06
2022-10-20T11:48:20.829Z,62.78
2022-10-20T11:50:55.837Z,62.94
2022-10-20T11:53:39.178Z,63.14
2022-10-20T11:56:48.329Z,63.11
2022-10-20T11:59:26.543Z,63.33
2022-10-20T12:02:20.047Z,63.41
2022-10-20T12:04:57.141Z,63.46
2022-10-20T12:08:00.907Z,63.36
2022-10-20T12:10:42.941Z,63.56
2022-10-20T12:13:27.471Z,63.50
2022-10-20T12:15:55.160Z,63.87
2022-10-20T12:18:27.629Z,63.51
2022-10-20T12:20:59.605Z,63.91
2022-10-20T12:24:02.655Z,63.82
2022-10-20T12:27:04.605Z,63.97
2022-10-20T12:30:02.998Z,63.83
2022-10-20T12:32:53.254Z,64.16
2022-10-20T12:36:02.685Z,64.55
2022-10-20T12:38:30.755Z,65.08
2022-10-20T12:41:00.193Z,65.58
2022-10-20T12:43:49.277Z,65.59
2022-10-20T12:46:22.243Z,66.18
2022-10-20T12:48:56.496Z,65.99
2022-10-20T12:51:28.986Z,66.05
2022-10-20T12:53:59.646Z,66.26
2022-10-20T12:56:28.730Z,66.05
2022-10-20T12:59:38.145Z,66.03
2022-10-20T13:02:33.716Z,65.91
2022-10-20T13:05:02.948Z,65.81
2022-10-20T13:07:59.797Z,65.75
2022-10-20T13:10:31.782Z,65.58
2022-10-20T13:16:02.868Z,65.52
2022-10-20T13:18:31.554Z,65.61
2022-10-20T13:20:59.507Z,65.44
2022-10-20T13:23:29.860Z,65.57
2022-10-20T13:25:58.207Z,65.31
2022-10-20T13:28:26.603Z,65.34
2022-10-20T13:31:12.046Z,65.26
2022-10-20T13:36:36.788Z,65.16
2022-10-20T13:39:06.632Z,65.04
2022-10-20T13:41:37.322Z,65.07
2022-10-20T13:44:11.052Z,64.96
2022-10-20T13:46:46.027Z,65.12
2022-10-20T13:49:30.086Z,64.75
2022-10-20T13:51:59.215Z,64.68
2022-10-20T13:54:27.669Z,64.90
2022-10-20T13:56:55.250Z,64.93
2022-10-20T14:01:58.599Z,64.97
2022-10-20T14:04:27.274Z,63.97
2022-10-20T14:06:54.939Z,63.60
2022-10-20T14:09:23.565Z,63.96
2022-10-20T14:11:53.091Z,64.15
2022-10-20T14:14:23.199Z,63.76
2022-10-20T14:16:53.357Z,63.86
2022-10-20T14:19:23.416Z,63.75
2022-10-20T14:21:51.627Z,63.81
2022-10-20T14:24:23.541Z,63.43
2022-10-20T14:26:51.177Z,63.36
2022-10-20T14:29:18.764Z,63.30
2022-10-20T14:31:46.535Z,63.24
2022-10-20T14:34:19.753Z,63.21
2022-10-20T14:36:49.129Z,63.05
2022-10-20T14:39:27.096Z,63.05
2022-10-20T14:41:54.655Z,63.13
2022-10-20T14:44:31.112Z,62.97
2022-10-20T14:47:00.597Z,63.12
2022-10-20T14:49:28.817Z,63.05
2022-10-20T14:51:58.421Z,63.29
2022-10-20T14:54:28.200Z,61.68
2022-10-20T14:56:56.759Z,61.28
2022-10-20T14:59:24.926Z,60.89
2022-10-20T15:02:08.477Z,61.12
2022-10-20T15:04:36.589Z,61.00
2022-10-20T15:07:07.784Z,60.72
2022-10-20T15:09:39.708Z,61.08
2022-10-20T15:12:08.158Z,60.80
2022-10-20T15:14:35.736Z,60.74
2022-10-20T15:17:03.280Z,60.91
2022-10-20T15:19:32.505Z,60.89
2022-10-20T15:22:02.155Z,60.45
2022-10-20T15:24:31.070Z,60.35
2022-10-20T15:26:58.619Z,60.65
2022-10-20T15:29:26.702Z,60.66
2022-10-20T15:31:54.638Z,60.78
2022-10-20T15:34:22.280Z,60.75
2022-10-20T15:36:51.116Z,61.30
2022-10-20T15:39:18.899Z,61.35
2022-10-20T15:41:49.133Z,61.48
2022-10-20T15:44:21.895Z,61.51
2022-10-20T15:46:50.737Z,61.55
2022-10-20T15:49:18.272Z,61.55
2022-10-20T15:51:46.592Z,61.19
2022-10-20T15:54:14.560Z,61.26
2022-10-20T15:56:42.120Z,61.08
2022-10-20T15:59:10.998Z,61.33
2022-10-20T16:01:38.642Z,61.45
2022-10-20T16:04:16.445Z,61.35
2022-10-20T16:06:44.233Z,61.52
2022-10-20T16:09:15.010Z,61.49
2022-10-20T16:11:43.756Z,61.56
2022-10-20T16:14:12.664Z,61.54
2022-10-20T16:16:40.249Z,61.65
2022-10-20T16:19:08.131Z,61.50
2022-10-20T16:21:35.665Z,61.49
2022-10-20T16:24:03.219Z,61.67
2022-10-20T16:26:30.889Z,61.62
2022-10-20T16:28:58.430Z,61.54
2022-10-20T16:31:27.422Z,61.74
2022-10-20T16:33:54.962Z,61.68
2022-10-20T16:36:22.552Z,61.58
2022-10-20T16:38:54.881Z,61.62
2022-10-20T16:41:22.481Z,61.87
2022-10-20T16:43:50.031Z,61.87
2022-10-20T16:46:17.589Z,62.15
2022-10-20T16:48:48.196Z,62.00
2022-10-20T16:51:16.131Z,62.11
2022-10-20T16:53:43.654Z,62.13
2022-10-20T16:56:13.048Z,62.37
2022-10-20T16:58:42.976Z,62.48
2022-10-20T17:01:12.318Z,62.73
2022-10-20T17:06:11.610Z,62.80
2022-10-20T17:08:39.429Z,62.42
2022-10-20T17:11:07.757Z,62.35
2022-10-20T17:13:35.364Z,62.33
2022-10-20T17:16:04.566Z,62.04
2022-10-20T17:18:32.467Z,62.23
2022-10-20T17:21:00.029Z,61.89
2022-10-20T17:23:28.946Z,61.76
2022-10-20T17:26:00.742Z,61.78
2022-10-20T17:28:28.348Z,61.27
2022-10-20T17:30:57.481Z,61.24
2022-10-20T17:33:26.951Z,61.27
2022-10-20T17:35:54.571Z,60.73
2022-10-20T17:38:22.289Z,60.66
2022-10-20T17:40:51.288Z,60.39
2022-10-20T17:43:18.884Z,60.39
2022-10-20T17:45:57.217Z,60.32
2022-10-20T17:48:24.847Z,60.30
2022-10-20T17:50:59.977Z,60.12
2022-10-20T17:53:27.529Z,60.45
2022-10-20T17:55:56.446Z,60.38
2022-10-20T17:58:24.005Z,60.14
2022-10-20T18:00:56.535Z,60.18
2022-10-20T18:03:24.553Z,60.41
2022-10-20T18:05:52.111Z,59.98
2022-10-20T18:08:19.643Z,59.88
2022-10-20T18:10:49.002Z,60.08
2022-10-20T18:13:18.004Z,60.07
2022-10-20T18:15:45.544Z,60.07
2022-10-20T18:18:13.100Z,59.69
2022-10-20T18:20:40.936Z,59.77
2022-10-20T18:23:08.531Z,59.64
2022-10-20T18:25:36.130Z,59.68
2022-10-20T18:28:03.811Z,59.55
2022-10-20T18:30:32.733Z,59.57
2022-10-20T18:33:00.269Z,59.49
2022-10-20T18:35:27.975Z,59.76
2022-10-20T18:37:57.541Z,59.79
2022-10-20T18:40:25.165Z,58.24
2022-10-20T18:42:52.702Z,57.74
2022-10-20T18:45:22.576Z,58.03
2022-10-20T18:47:54.132Z,58.21
2022-10-20T18:50:21.773Z,58.76
2022-10-20T18:52:49.288Z,58.56
2022-10-20T18:55:16.911Z,58.69
2022-10-20T18:57:44.555Z,58.89
2022-10-20T19:00:13.209Z,59.25
2022-10-20T19:02:40.901Z,59.20
2022-10-20T19:05:10.303Z,59.26
2022-10-20T19:07:38.039Z,59.28
2022-10-20T19:10:06.489Z,59.18
2022-10-20T19:12:34.028Z,58.98
2022-10-20T19:15:01.577Z,59.02
2022-10-20T19:17:29.150Z,59.03
2022-10-20T19:19:56.674Z,58.82
2022-10-20T19:22:28.479Z,58.77
2022-10-20T19:24:57.048Z,58.80
2022-10-20T19:27:27.203Z,58.65
2022-10-20T19:29:55.788Z,58.05
2022-10-20T19:32:23.420Z,58.69
2022-10-20T19:34:51.053Z,58.60
2022-10-20T19:37:18.633Z,58.78
2022-10-20T19:39:47.604Z,58.83
2022-10-20T19:42:15.164Z,58.65
2022-10-20T19:44:42.714Z,58.87
2022-10-20T19:47:10.528Z,58.96
2022-10-20T19:49:38.521Z,58.85
2022-10-20T19:52:06.139Z,58.21
2022-10-20T19:54:33.749Z,58.81
2022-10-20T19:57:02.657Z,58.72
2022-10-20T19:59:30.173Z,58.61
2022-10-20T20:01:57.698Z,59.30
2022-10-20T20:04:25.441Z,58.83
2022-10-20T20:06:53.009Z,58.62
2022-10-20T20:09:20.570Z,58.75
2022-10-20T20:11:48.172Z,59.01
2022-10-20T20:14:18.156Z,58.76
2022-10-20T20:16:46.841Z,58.82
2022-10-20T20:19:15.321Z,58.82
2022-10-20T20:21:42.885Z,58.50
2022-10-20T20:24:12.479Z,58.45
2022-10-20T20:26:40.200Z,58.51
2022-10-20T20:29:07.769Z,58.10
2022-10-20T20:31:36.656Z,58.27
2022-10-20T20:34:04.272Z,58.59
2022-10-20T20:36:32.265Z,58.44
2022-10-20T20:38:59.991Z,58.77
2022-10-20T20:41:28.265Z,58.59
2022-10-20T20:43:55.891Z,59.09
2022-10-20T20:46:24.045Z,59.25
2022-10-20T20:48:52.960Z,59.58
2022-10-20T20:51:20.573Z,59.75
2022-10-20T20:53:48.106Z,59.75
2022-10-20T20:56:16.558Z,59.92
2022-10-20T20:58:45.222Z,60.10
2022-10-20T21:01:14.237Z,60.29
2022-10-20T21:03:41.970Z,60.13
2022-10-20T21:06:11.633Z,60.22
2022-10-20T21:08:39.943Z,60.19
2022-10-20T21:11:07.676Z,60.43
2022-10-20T21:13:35.256Z,60.44
2022-10-20T21:16:12.498Z,60.44
2022-10-20T21:18:40.260Z,60.70
2022-10-20T21:23:44.156Z,60.53
2022-10-20T21:26:13.228Z,61.04
2022-10-20T21:28:40.994Z,60.86
2022-10-20T21:31:09.523Z,60.85
2022-10-20T21:33:37.241Z,60.76
2022-10-20T21:36:05.558Z,60.98
2022-10-20T21:38:34.689Z,60.93
2022-10-20T21:41:03.559Z,61.15
2022-10-20T21:43:31.314Z,61.05
2022-10-20T21:46:10.033Z,61.08
2022-10-20T21:48:37.564Z,61.03
2022-10-20T21:51:09.969Z,60.93
2022-10-20T21:53:38.886Z,61.19
2022-10-20T21:56:06.968Z,61.24
2022-10-20T21:58:35.067Z,60.95
2022-10-20T22:01:09.463Z,61.11
2022-10-20T22:03:37.051Z,61.03
2022-10-20T22:06:04.756Z,61.02
2022-10-20T22:08:32.312Z,61.01
2022-10-20T22:11:04.744Z,60.98
2022-10-20T22:13:32.377Z,61.00
2022-10-20T22:15:59.957Z,60.86
2022-10-20T22:18:27.557Z,61.02
2022-10-20T22:20:55.140Z,61.10
2022-10-20T22:23:22.689Z,61.28
2022-10-20T22:25:52.805Z,60.95
2022-10-20T22:28:21.716Z,61.23
2022-10-20T22:30:49.328Z,61.17
2022-10-20T22:33:16.932Z,61.29
2022-10-20T22:35:44.585Z,61.07
2022-10-20T22:38:12.140Z,61.03
2022-10-20T22:40:39.649Z,61.14
2022-10-20T22:43:07.203Z,61.05
2022-10-20T22:45:36.201Z,61.33
2022-10-20T22:48:03.797Z,61.08
2022-10-20T22:50:31.341Z,61.23
2022-10-20T22:52:58.881Z,61.13
2022-10-20T22:55:26.557Z,61.05
2022-10-20T22:57:54.137Z,61.06
2022-10-20T23:00:21.701Z,61.05
2022-10-20T23:02:50.581Z,61.09
2022-10-20T23:05:18.428Z,61.17
2022-10-20T23:07:45.984Z,61.06
2022-10-20T23:10:13.560Z,61.06
2022-10-20T23:12:41.241Z,61.10
2022-10-20T23:15:09.212Z,61.13
2022-10-20T23:17:37.745Z,61.05
2022-10-20T23:20:07.590Z,61.28
2022-10-20T23:22:35.217Z,61.22
2022-10-20T23:25:02.761Z,61.26
2022-10-20T23:27:30.321Z,61.01
2022-10-20T23:29:57.892Z,61.22
2022-10-20T23:32:25.476Z,61.38
2022-10-20T23:34:53.095Z,61.14
2022-10-20T23:37:23.538Z,61.21
2022-10-20T23:39:51.108Z,61.53
2022-10-20T23:42:18.644Z,61.35
2022-10-20T23:44:46.197Z,61.11
2022-10-20T23:47:13.717Z,61.42
2022-10-20T23:49:41.289Z,61.02
2022-10-20T23:52:08.837Z,61.00
2022-10-20T23:54:37.723Z,61.41
2022-10-20T23:57:05.249Z,61.07
2022-10-20T23:59:32.826Z,61.21
